FYWW

Windhoek, Town MET Airport

Windhoek, Namibia
METAR FYWW 170700Z 36004KT CAVOK 26/08 Q1022
Observed Flight Rules
Dec-17 @ 07:00 UTC (an hour ago) Visual Flight Rules
Wind Visibility Clouds
360° at 4 knots 10,000+ meters
  • Clear skies
Temperatures Readings
Current 26°C / 79°F
Dewpoint 8°C / 46°F
Humidity 32%
Altimeter 30.18" Hg
Pressure 1022 hPa
Elevation 1725
METAR FYWW 170700Z 36004KT CAVOK 26/08 Q1022
Observed Flight Rules
Dec-17 @ 07:00 UTC
(an hour ago)
VFR
Wind Visibility
360° at 4 knots 10,000+ meters
Clouds
  • Clear skies
Temperature Dewpoint
26°C / 79°F 8°C / 46°F
Humidity Altimeter Pressure
32% 30.18" Hg 1022 hPa